createdAt,value
2022-10-17T00:16:21.785Z,179
2022-10-17T00:36:21.784Z,179
2022-10-17T00:56:21.780Z,179
2022-10-17T01:16:21.786Z,179
2022-10-17T01:36:21.581Z,179
2022-10-17T01:56:21.790Z,180
2022-10-17T02:16:21.811Z,179
2022-10-17T02:36:22.789Z,179
2022-10-17T02:56:21.805Z,182
2022-10-17T03:16:21.898Z,180
2022-10-17T03:36:21.864Z,181
2022-10-17T03:56:21.790Z,179
2022-10-17T04:16:21.800Z,180
2022-10-17T04:36:21.793Z,182
2022-10-17T04:56:21.595Z,183
2022-10-17T05:16:21.805Z,182
2022-10-17T05:36:21.792Z,180
2022-10-17T05:56:21.771Z,175
2022-10-17T06:16:21.779Z,178
2022-10-17T06:36:21.775Z,179
2022-10-17T06:56:21.568Z,173
2022-10-17T07:16:21.780Z,179
2022-10-17T07:36:21.776Z,176
2022-10-17T07:56:21.773Z,182
2022-10-17T08:16:21.765Z,180
2022-10-17T08:36:21.793Z,177
2022-10-17T08:56:24.955Z,185
2022-10-17T09:16:21.758Z,185
2022-10-17T09:36:21.758Z,185
2022-10-17T09:56:21.565Z,184
2022-10-17T10:16:21.544Z,176
2022-10-17T10:36:21.719Z,175
2022-10-17T10:56:21.726Z,175
2022-10-17T11:16:21.712Z,178
2022-10-17T11:36:21.723Z,169
2022-10-17T11:56:21.756Z,172
2022-10-17T12:16:21.705Z,165
2022-10-17T12:36:21.699Z,163
2022-10-17T12:56:21.676Z,171
2022-10-17T13:16:21.805Z,165
2022-10-17T13:36:21.675Z,166
2022-10-17T13:56:27.648Z,173
2022-10-17T14:16:21.644Z,166
2022-10-17T14:36:21.646Z,175
2022-10-17T14:56:21.643Z,169
2022-10-17T15:16:21.728Z,169
2022-10-17T15:36:21.644Z,170
2022-10-17T15:56:21.634Z,168
2022-10-17T16:16:21.631Z,174
2022-10-17T16:36:21.632Z,173
2022-10-17T16:56:21.614Z,178
2022-10-17T17:16:21.601Z,174
2022-10-17T17:36:21.097Z,176
2022-10-17T17:56:21.636Z,175
2022-10-17T18:16:21.090Z,178
2022-10-17T18:36:21.601Z,173
2022-10-17T18:56:21.689Z,172
2022-10-17T19:16:21.613Z,177
2022-10-17T19:36:21.581Z,174
2022-10-17T19:56:21.363Z,176
2022-10-17T20:16:21.074Z,176
2022-10-17T20:36:21.582Z,177
2022-10-17T20:56:21.569Z,179
2022-10-17T21:16:21.581Z,177
2022-10-17T21:36:21.567Z,177
2022-10-17T21:56:21.560Z,177
2022-10-17T22:16:21.562Z,176
2022-10-17T22:36:21.562Z,177
2022-10-17T22:56:21.575Z,180
2022-10-17T23:16:21.539Z,179
2022-10-17T23:36:21.129Z,180
2022-10-17T23:56:21.405Z,179
